createdAt,value
2019-05-22T00:00:59.138Z,1.10
2019-05-22T00:03:41.639Z,2.53
2019-05-22T00:06:12.502Z,1.23
2019-05-22T00:08:43.468Z,1.77
2019-05-22T00:11:13.838Z,2.33
2019-05-22T00:13:47.356Z,1.27
2019-05-22T00:16:17.994Z,1.50
2019-05-22T00:18:49.367Z,3.97
2019-05-22T00:21:20.819Z,5.13
2019-05-22T00:23:52.446Z,2.10
2019-05-22T00:26:22.861Z,1.83
2019-05-22T00:28:54.218Z,2.90
2019-05-22T00:31:25.963Z,1.73
2019-05-22T00:33:57.758Z,2.60
2019-05-22T00:36:28.598Z,1.40
2019-05-22T00:39:00.639Z,1.40
2019-05-22T00:41:32.649Z,1.50
2019-05-22T00:44:04.197Z,1.33
2019-05-22T00:46:34.110Z,1.30
2019-05-22T00:49:04.553Z,1.40
2019-05-22T00:51:54.091Z,1.67
2019-05-22T00:54:38.240Z,1.13
2019-05-22T00:57:26.197Z,1.13
2019-05-22T01:00:01.120Z,1.33
2019-05-22T01:02:33.019Z,3.10
2019-05-22T01:05:02.408Z,1.37
2019-05-22T01:07:42.380Z,1.27
2019-05-22T01:10:12.275Z,1.00
2019-05-22T01:12:44.092Z,0.70
2019-05-22T01:15:18.430Z,0.77
2019-05-22T01:17:49.522Z,2.07
2019-05-22T01:20:24.509Z,0.60
2019-05-22T01:22:57.645Z,1.87
2019-05-22T01:25:29.008Z,0.60
2019-05-22T01:27:59.475Z,0.73
2019-05-22T01:30:38.992Z,0.80
2019-05-22T01:33:16.492Z,0.63
2019-05-22T01:36:06.336Z,0.80
2019-05-22T01:38:39.428Z,1.60
2019-05-22T01:41:14.811Z,0.80
2019-05-22T01:43:46.130Z,1.03
2019-05-22T01:46:17.182Z,1.70
2019-05-22T01:48:48.445Z,0.60
2019-05-22T01:51:18.128Z,0.77
2019-05-22T01:53:47.530Z,0.60
2019-05-22T01:56:18.950Z,0.50
2019-05-22T01:58:49.828Z,0.83
2019-05-22T02:01:20.868Z,0.50
2019-05-22T02:03:54.226Z,2.07
2019-05-22T02:06:26.615Z,0.60
2019-05-22T02:09:14.249Z,2.17
2019-05-22T02:11:46.319Z,0.70
2019-05-22T02:14:18.171Z,0.57
2019-05-22T02:16:56.849Z,1.07
2019-05-22T02:19:20.515Z,1.83
2019-05-22T02:21:50.252Z,0.70
2019-05-22T02:24:19.696Z,2.97
2019-05-22T02:26:50.129Z,1.90
2019-05-22T02:29:22.982Z,0.90
2019-05-22T02:31:55.540Z,1.20
2019-05-22T02:34:25.068Z,1.83
2019-05-22T02:36:56.095Z,1.63
2019-05-22T02:39:29.417Z,1.37
2019-05-22T02:42:05.511Z,1.60
2019-05-22T02:44:36.538Z,1.57
2019-05-22T02:47:19.048Z,1.67
2019-05-22T02:49:41.157Z,2.90
2019-05-22T02:52:13.178Z,3.33
2019-05-22T02:54:42.925Z,1.40
2019-05-22T02:57:13.492Z,1.80
2019-05-22T02:59:44.903Z,1.40
2019-05-22T03:02:16.304Z,1.40
2019-05-22T03:05:01.569Z,1.20
2019-05-22T03:07:31.554Z,1.50
2019-05-22T03:10:03.409Z,2.17
2019-05-22T03:12:35.532Z,1.17
2019-05-22T03:15:08.972Z,1.20
2019-05-22T03:17:40.899Z,3.17
2019-05-22T03:20:13.991Z,1.70
2019-05-22T03:23:53.611Z,1.40
2019-05-22T03:26:24.744Z,1.70
2019-05-22T03:28:54.373Z,1.47
2019-05-22T03:31:25.384Z,2.43
2019-05-22T03:33:57.021Z,1.80
2019-05-22T03:36:28.113Z,2.03
2019-05-22T03:38:58.946Z,3.63
2019-05-22T03:41:28.428Z,2.60
2019-05-22T03:43:58.463Z,2.40
2019-05-22T03:46:47.880Z,2.40
2019-05-22T03:49:29.649Z,4.10
2019-05-22T03:51:53.515Z,2.07
2019-05-22T03:54:22.928Z,5.73
2019-05-22T03:56:54.051Z,1.90
2019-05-22T03:59:23.850Z,2.83
2019-05-22T04:01:54.814Z,3.40
2019-05-22T04:04:40.408Z,1.93
2019-05-22T04:07:14.070Z,5.00
2019-05-22T04:09:45.241Z,2.50
2019-05-22T04:12:15.411Z,2.90
2019-05-22T04:14:45.906Z,2.53
2019-05-22T04:17:16.552Z,3.73
2019-05-22T04:19:50.560Z,2.70
2019-05-22T04:22:18.275Z,3.93
2019-05-22T04:24:47.704Z,5.00
2019-05-22T04:27:17.736Z,5.37
2019-05-22T04:29:49.916Z,3.47
2019-05-22T04:32:31.749Z,5.17
2019-05-22T04:35:02.482Z,3.50
2019-05-22T04:37:34.360Z,3.07
2019-05-22T04:40:40.805Z,2.63
2019-05-22T04:43:10.678Z,3.93
2019-05-22T04:45:40.134Z,3.40
2019-05-22T04:48:10.281Z,5.80
2019-05-22T04:50:39.853Z,4.07
2019-05-22T04:53:09.248Z,2.83
2019-05-22T04:55:39.326Z,4.77
2019-05-22T04:58:10.689Z,2.93
2019-05-22T05:00:41.107Z,4.53
2019-05-22T05:03:11.155Z,1.77
2019-05-22T05:05:43.361Z,1.83
2019-05-22T05:08:15.170Z,1.60
2019-05-22T05:10:46.948Z,4.83
2019-05-22T05:13:17.498Z,3.53
2019-05-22T05:15:47.004Z,1.87
2019-05-22T05:18:16.854Z,2.87
2019-05-22T05:20:46.143Z,4.80
2019-05-22T05:23:15.852Z,4.27
2019-05-22T05:25:45.473Z,5.87
2019-05-22T05:28:16.286Z,3.40
2019-05-22T05:30:45.910Z,4.33
2019-05-22T05:33:15.419Z,3.80
2019-05-22T05:35:45.834Z,4.20
2019-05-22T05:38:15.679Z,2.70
2019-05-22T05:40:46.339Z,4.67
2019-05-22T05:43:19.256Z,3.53
2019-05-22T05:45:50.152Z,7.10
2019-05-22T05:48:22.568Z,4.50
2019-05-22T05:51:23.707Z,6.20
2019-05-22T05:53:59.603Z,4.43
2019-05-22T05:56:31.761Z,7.63
2019-05-22T05:59:03.035Z,3.20
2019-05-22T06:01:36.271Z,4.00
2019-05-22T06:04:06.141Z,2.77
2019-05-22T06:07:17.470Z,4.57
2019-05-22T06:10:16.402Z,3.93
2019-05-22T06:12:47.701Z,2.70
2019-05-22T06:15:17.056Z,2.60
2019-05-22T06:18:25.756Z,4.43
2019-05-22T06:21:03.649Z,3.10
2019-05-22T06:24:03.384Z,3.20
2019-05-22T06:26:57.608Z,4.60
2019-05-22T06:29:34.560Z,4.80
2019-05-22T06:32:58.787Z,5.53
2019-05-22T06:35:32.737Z,3.20
2019-05-22T06:38:20.452Z,2.70
2019-05-22T06:40:50.084Z,3.50
2019-05-22T06:44:01.436Z,4.63
2019-05-22T06:46:48.101Z,4.10
2019-05-22T06:49:47.003Z,4.33
2019-05-22T06:52:16.994Z,4.73
2019-05-22T06:54:46.572Z,4.00
2019-05-22T06:57:18.063Z,2.97
2019-05-22T06:59:49.096Z,3.13
2019-05-22T07:02:20.170Z,2.60
2019-05-22T07:04:52.008Z,3.37
2019-05-22T07:07:24.245Z,2.40
2019-05-22T07:09:53.585Z,3.60
2019-05-22T07:12:27.677Z,3.03
2019-05-22T07:15:50.463Z,3.40
2019-05-22T07:18:23.907Z,2.50
2019-05-22T07:20:54.514Z,2.00
2019-05-22T07:23:31.998Z,3.90
2019-05-22T07:26:02.152Z,2.13
2019-05-22T07:28:33.266Z,2.10
2019-05-22T07:31:02.883Z,2.10
2019-05-22T07:33:32.917Z,1.90
2019-05-22T07:36:09.861Z,2.80
2019-05-22T07:38:34.600Z,3.27
2019-05-22T07:41:05.935Z,1.90
2019-05-22T07:43:35.544Z,4.73
2019-05-22T07:46:05.039Z,2.07
2019-05-22T07:48:34.849Z,2.43
2019-05-22T07:51:05.903Z,1.70
2019-05-22T07:53:35.544Z,2.60
2019-05-22T07:56:10.186Z,5.37
2019-05-22T07:58:47.212Z,2.87
2019-05-22T08:01:25.276Z,2.60
2019-05-22T08:04:16.272Z,1.67
2019-05-22T08:06:53.135Z,3.53
2019-05-22T08:10:30.137Z,2.00
2019-05-22T08:13:53.344Z,2.10
2019-05-22T08:16:34.069Z,4.20
2019-05-22T08:19:06.570Z,2.50
2019-05-22T08:22:07.002Z,2.27
2019-05-22T08:24:31.869Z,3.20
2019-05-22T08:27:06.651Z,2.70
2019-05-22T08:29:39.985Z,2.43
2019-05-22T08:32:17.211Z,4.00
2019-05-22T08:34:49.451Z,4.83
2019-05-22T08:37:28.567Z,2.00
2019-05-22T08:40:02.867Z,3.30
2019-05-22T08:42:35.341Z,3.63
2019-05-22T08:45:16.207Z,2.67
2019-05-22T08:48:28.766Z,1.97
2019-05-22T08:51:06.033Z,2.47
2019-05-22T08:53:47.455Z,2.10
2019-05-22T08:56:32.751Z,3.57
2019-05-22T08:59:18.395Z,3.43
2019-05-22T09:01:36.501Z,2.30
2019-05-22T09:04:28.803Z,13.03
2019-05-22T09:07:28.151Z,4.43
2019-05-22T09:10:14.010Z,2.97
2019-05-22T09:12:44.628Z,3.10
2019-05-22T09:15:19.399Z,2.20
2019-05-22T09:17:50.806Z,2.77
2019-05-22T09:20:22.564Z,6.40
2019-05-22T09:22:55.147Z,3.27
2019-05-22T09:25:27.467Z,6.10
2019-05-22T09:27:57.770Z,4.67
2019-05-22T09:30:30.466Z,5.53
2019-05-22T09:33:00.838Z,5.50
2019-05-22T09:35:31.224Z,4.00
2019-05-22T09:38:00.732Z,6.17
2019-05-22T09:40:31.552Z,3.53
2019-05-22T09:43:01.601Z,3.37
2019-05-22T09:45:31.411Z,7.87
2019-05-22T09:48:01.326Z,3.53
2019-05-22T09:50:30.667Z,4.30
2019-05-22T09:53:03.598Z,5.50
2019-05-22T09:55:33.064Z,5.80
2019-05-22T09:58:05.766Z,4.53
2019-05-22T10:00:35.620Z,4.47
2019-05-22T10:03:05.765Z,5.77
2019-05-22T10:05:40.943Z,3.13
2019-05-22T10:08:10.490Z,4.10
2019-05-22T10:10:39.798Z,3.90
2019-05-22T10:13:09.832Z,4.70
2019-05-22T10:15:40.485Z,5.37
2019-05-22T10:18:11.019Z,11.10
2019-05-22T10:20:40.710Z,3.67
2019-05-22T10:23:15.619Z,4.40
2019-05-22T10:25:42.039Z,5.13
2019-05-22T10:28:11.772Z,3.90
2019-05-22T10:30:41.135Z,8.07
2019-05-22T10:33:10.731Z,3.57
2019-05-22T10:35:41.129Z,4.80
2019-05-22T10:38:10.880Z,3.10
2019-05-22T10:40:40.639Z,3.90
2019-05-22T10:43:10.075Z,3.40
2019-05-22T10:45:39.844Z,4.47
2019-05-22T10:48:09.510Z,3.77
2019-05-22T10:50:38.940Z,4.33
2019-05-22T10:53:12.057Z,4.27
2019-05-22T10:55:41.811Z,4.13
2019-05-22T10:58:11.299Z,3.90
2019-05-22T11:00:42.236Z,5.30
2019-05-22T11:03:13.971Z,4.50
2019-05-22T11:05:44.820Z,5.87
2019-05-22T11:08:15.699Z,4.50
2019-05-22T11:10:45.740Z,3.60
2019-05-22T11:13:16.259Z,3.97
2019-05-22T11:15:45.776Z,5.27
2019-05-22T11:18:15.279Z,7.90
2019-05-22T11:20:45.197Z,4.63
2019-05-22T11:23:15.741Z,4.17
2019-05-22T11:25:45.194Z,4.37
2019-05-22T11:28:14.624Z,6.30
2019-05-22T11:30:43.987Z,4.33
2019-05-22T11:33:13.340Z,4.93
2019-05-22T11:35:44.219Z,7.50
2019-05-22T11:38:14.994Z,4.30
2019-05-22T11:40:46.991Z,4.47
2019-05-22T11:43:17.405Z,4.97
2019-05-22T11:45:46.975Z,5.23
2019-05-22T11:48:16.475Z,4.20
2019-05-22T11:50:47.068Z,4.30
2019-05-22T11:53:17.110Z,5.47
2019-05-22T11:55:46.664Z,4.07
2019-05-22T11:58:16.888Z,5.00
2019-05-22T12:00:47.297Z,4.60
2019-05-22T12:03:18.455Z,5.72
2019-05-22T12:05:48.519Z,5.70
2019-05-22T12:08:18.971Z,4.97
2019-05-22T12:10:48.867Z,7.87
2019-05-22T12:13:23.237Z,6.17
2019-05-22T12:15:53.542Z,5.83
2019-05-22T12:18:22.930Z,7.28
2019-05-22T12:20:55.248Z,5.40
2019-05-22T12:23:24.814Z,6.10
2019-05-22T12:26:03.240Z,6.60
2019-05-22T12:28:33.778Z,8.00
2019-05-22T12:31:15.913Z,12.73
2019-05-22T12:33:45.328Z,9.30
2019-05-22T12:36:17.102Z,7.95
2019-05-22T12:38:46.906Z,7.42
2019-05-22T12:41:19.323Z,8.30
2019-05-22T12:43:48.887Z,7.70
2019-05-22T12:46:19.691Z,8.93
2019-05-22T12:48:52.688Z,9.87
2019-05-22T12:51:22.581Z,7.23
2019-05-22T12:53:53.471Z,9.23
2019-05-22T12:56:23.389Z,7.63
2019-05-22T12:58:55.753Z,9.00
2019-05-22T13:01:29.055Z,8.30
2019-05-22T13:03:59.537Z,8.77
2019-05-22T13:06:29.897Z,11.73
2019-05-22T13:09:02.227Z,9.80
2019-05-22T13:11:32.324Z,8.68
2019-05-22T13:14:01.721Z,11.93
2019-05-22T13:16:31.971Z,8.63
2019-05-22T13:19:01.725Z,7.97
2019-05-22T13:21:35.174Z,6.60
2019-05-22T13:24:15.888Z,8.67
2019-05-22T13:26:47.333Z,7.27
2019-05-22T13:29:18.099Z,10.63
2019-05-22T13:31:50.171Z,8.30
2019-05-22T13:34:21.755Z,8.97
2019-05-22T13:36:56.673Z,8.90
2019-05-22T13:39:25.775Z,11.87
2019-05-22T13:41:55.510Z,11.17
2019-05-22T13:44:25.456Z,10.63
2019-05-22T13:46:55.385Z,9.70
2019-05-22T13:49:25.534Z,10.13
2019-05-22T13:51:54.905Z,12.67
2019-05-22T13:54:26.494Z,9.53
2019-05-22T13:56:57.889Z,8.87
2019-05-22T13:59:27.514Z,20.57
2019-05-22T14:01:57.122Z,11.37
2019-05-22T14:04:26.651Z,13.23
2019-05-22T14:06:57.838Z,9.40
2019-05-22T14:09:28.763Z,11.33
2019-05-22T14:11:58.497Z,11.83
2019-05-22T14:14:27.888Z,11.43
2019-05-22T14:16:59.541Z,14.43
2019-05-22T14:19:29.137Z,11.90
2019-05-22T14:21:58.749Z,13.13
2019-05-22T14:24:28.141Z,13.43
2019-05-22T14:26:57.605Z,15.10
2019-05-22T14:29:26.954Z,17.30
2019-05-22T14:31:58.499Z,16.03
2019-05-22T14:34:28.176Z,13.50
2019-05-22T14:36:58.199Z,17.43
2019-05-22T14:39:28.232Z,12.80
2019-05-22T14:41:57.821Z,14.57
2019-05-22T14:44:27.398Z,15.43
2019-05-22T14:47:10.656Z,12.97
2019-05-22T14:49:28.069Z,16.50
2019-05-22T14:51:57.822Z,14.90
2019-05-22T14:54:27.850Z,14.73
2019-05-22T14:56:57.186Z,17.63
2019-05-22T14:59:27.499Z,16.80
2019-05-22T15:01:58.368Z,15.87
2019-05-22T15:04:30.057Z,17.27
2019-05-22T15:07:02.313Z,14.83
2019-05-22T15:09:32.099Z,18.47
2019-05-22T15:12:06.074Z,16.20
2019-05-22T15:14:36.202Z,15.13
2019-05-22T15:17:07.400Z,14.67
2019-05-22T15:19:37.475Z,18.53
2019-05-22T15:22:07.371Z,15.53
2019-05-22T15:24:36.691Z,17.63
2019-05-22T15:27:07.915Z,16.57
2019-05-22T15:29:38.432Z,16.83
2019-05-22T15:32:10.656Z,15.53
2019-05-22T15:34:41.196Z,19.03
2019-05-22T15:37:24.954Z,17.97
2019-05-22T15:39:58.009Z,19.00
2019-05-22T15:42:55.523Z,14.37
2019-05-22T15:45:27.334Z,27.20
2019-05-22T15:47:58.594Z,17.53
2019-05-22T15:50:31.911Z,17.07
2019-05-22T15:53:07.079Z,17.37
2019-05-22T15:55:39.055Z,15.53
2019-05-22T15:58:09.723Z,16.63
2019-05-22T16:00:40.248Z,17.00
2019-05-22T16:03:11.829Z,17.23
2019-05-22T16:05:43.561Z,16.83
2019-05-22T16:08:14.875Z,17.03
2019-05-22T16:10:46.522Z,20.10
2019-05-22T16:13:19.267Z,18.97
2019-05-22T16:15:51.900Z,20.70
2019-05-22T16:18:24.388Z,18.67
2019-05-22T16:20:57.363Z,17.27
2019-05-22T16:23:30.768Z,18.23
2019-05-22T16:26:01.880Z,18.77
2019-05-22T16:28:36.117Z,18.17
2019-05-22T16:31:10.530Z,19.40
2019-05-22T16:33:41.646Z,18.13
2019-05-22T16:36:14.455Z,19.77
2019-05-22T16:38:44.384Z,22.20
2019-05-22T16:41:14.858Z,25.07
2019-05-22T16:43:49.291Z,23.70
2019-05-22T16:46:19.504Z,25.33
2019-05-22T16:48:49.947Z,25.17
2019-05-22T16:51:21.615Z,28.53
2019-05-22T16:53:53.996Z,30.10
2019-05-22T16:56:24.838Z,25.60
2019-05-22T16:58:55.807Z,26.97
2019-05-22T17:01:26.460Z,30.23
2019-05-22T17:04:02.837Z,26.07
2019-05-22T17:06:33.391Z,26.70
2019-05-22T17:09:08.217Z,28.87
2019-05-22T17:11:38.350Z,28.23
2019-05-22T17:14:08.911Z,29.03
2019-05-22T17:16:41.234Z,28.97
2019-05-22T17:19:26.469Z,28.13
2019-05-22T17:21:45.520Z,35.17
2019-05-22T17:24:17.316Z,36.43
2019-05-22T17:26:48.035Z,35.23
2019-05-22T17:29:18.151Z,32.20
2019-05-22T17:31:47.994Z,34.00
2019-05-22T17:34:35.396Z,35.17
2019-05-22T17:37:16.375Z,31.87
2019-05-22T17:39:48.927Z,34.80
2019-05-22T17:42:23.454Z,35.27
2019-05-22T17:44:54.151Z,38.50
2019-05-22T17:47:26.801Z,33.40
2019-05-22T17:49:56.946Z,30.67
2019-05-22T17:52:27.809Z,34.27
2019-05-22T17:54:57.561Z,31.13
2019-05-22T17:57:27.347Z,34.50
2019-05-22T18:00:00.704Z,31.70
2019-05-22T18:02:49.506Z,28.97
2019-05-22T18:05:24.819Z,33.37
2019-05-22T18:08:41.517Z,44.80
2019-05-22T18:11:20.901Z,32.60
2019-05-22T18:14:11.499Z,31.03
2019-05-22T18:16:45.854Z,36.07
2019-05-22T18:20:01.115Z,35.83
2019-05-22T18:22:36.334Z,35.40
2019-05-22T18:25:10.835Z,33.23
2019-05-22T18:27:41.537Z,34.10
2019-05-22T18:30:14.288Z,40.33
2019-05-22T18:32:44.114Z,40.23
2019-05-22T18:35:21.462Z,43.17
2019-05-22T18:37:53.927Z,39.03
2019-05-22T18:40:26.025Z,36.37
2019-05-22T18:42:55.587Z,37.27
2019-05-22T18:45:25.389Z,46.07
2019-05-22T18:47:57.952Z,40.17
2019-05-22T18:50:46.382Z,41.80
2019-05-22T18:53:20.587Z,37.67
2019-05-22T18:55:50.451Z,43.07
2019-05-22T18:58:23.835Z,40.73
2019-05-22T19:00:54.245Z,42.67
2019-05-22T19:03:31.087Z,41.70
2019-05-22T19:06:02.610Z,44.93
2019-05-22T19:08:36.831Z,43.03
2019-05-22T19:11:10.581Z,47.17
2019-05-22T19:13:49.190Z,46.07
2019-05-22T19:16:27.295Z,46.43
2019-05-22T19:19:00.730Z,46.90
2019-05-22T19:21:41.463Z,45.57
2019-05-22T19:24:27.112Z,44.97
2019-05-22T19:27:08.097Z,41.60
2019-05-22T19:29:42.390Z,44.73
2019-05-22T19:32:23.100Z,40.30
2019-05-22T19:35:02.527Z,42.23
2019-05-22T19:37:36.376Z,40.90
2019-05-22T19:40:17.674Z,41.70
2019-05-22T19:43:05.632Z,41.10
2019-05-22T19:45:56.039Z,41.67
2019-05-22T19:48:39.727Z,42.20
2019-05-22T19:51:23.502Z,39.20
2019-05-22T19:54:14.038Z,40.27
2019-05-22T19:56:44.954Z,40.27
2019-05-22T19:59:15.038Z,41.23
2019-05-22T20:01:45.649Z,39.73
2019-05-22T20:04:15.379Z,37.13
2019-05-22T20:06:47.203Z,37.70
2019-05-22T20:09:21.073Z,43.10
2019-05-22T20:11:50.970Z,40.67
2019-05-22T20:14:22.427Z,45.93
2019-05-22T20:16:55.616Z,41.47
2019-05-22T20:19:30.751Z,43.87
2019-05-22T20:22:01.027Z,45.53
2019-05-22T20:24:30.641Z,42.40
2019-05-22T20:27:00.721Z,41.30
2019-05-22T20:29:30.359Z,50.07
2019-05-22T20:31:59.739Z,45.53
2019-05-22T20:34:29.664Z,58.40
2019-05-22T20:36:59.484Z,50.17
2019-05-22T20:39:30.983Z,43.23
2019-05-22T20:42:00.729Z,47.43
2019-05-22T20:44:30.869Z,42.00
2019-05-22T20:47:01.596Z,45.47
2019-05-22T20:49:35.980Z,45.90
2019-05-22T20:52:10.744Z,45.93
2019-05-22T20:54:40.942Z,41.50
2019-05-22T20:57:12.931Z,46.40
2019-05-22T20:59:43.971Z,44.03
2019-05-22T21:02:14.294Z,45.20
2019-05-22T21:04:45.785Z,46.17
2019-05-22T21:07:18.066Z,46.23
2019-05-22T21:09:48.118Z,44.33
2019-05-22T21:12:19.308Z,46.87
2019-05-22T21:14:49.834Z,47.23
2019-05-22T21:17:20.064Z,44.10
2019-05-22T21:19:49.603Z,47.60
2019-05-22T21:22:23.232Z,41.33
2019-05-22T21:24:53.253Z,41.90
2019-05-22T21:27:22.555Z,46.13
2019-05-22T21:29:52.671Z,42.20
2019-05-22T21:32:23.615Z,41.93
2019-05-22T21:34:54.364Z,38.70
2019-05-22T21:37:24.759Z,39.20
2019-05-22T21:39:54.619Z,41.47
2019-05-22T21:42:24.935Z,42.03
2019-05-22T21:44:55.461Z,39.83
2019-05-22T21:47:26.475Z,37.10
2019-05-22T21:49:57.646Z,38.43
2019-05-22T21:52:42.638Z,41.90
2019-05-22T21:55:14.092Z,44.50
2019-05-22T21:57:44.520Z,42.07
2019-05-22T22:00:19.418Z,45.23
2019-05-22T22:02:49.900Z,49.70
2019-05-22T22:05:20.059Z,42.53
2019-05-22T22:07:50.384Z,39.47
2019-05-22T22:10:20.308Z,43.37
2019-05-22T22:12:54.254Z,40.00
2019-05-22T22:15:24.896Z,41.00
2019-05-22T22:17:55.064Z,41.87
2019-05-22T22:20:25.507Z,41.07
2019-05-22T22:22:55.377Z,41.43
2019-05-22T22:25:25.494Z,42.17
2019-05-22T22:27:55.431Z,41.17
2019-05-22T22:30:33.035Z,40.73
2019-05-22T22:33:07.874Z,41.70
2019-05-22T22:35:37.450Z,39.60
2019-05-22T22:38:09.732Z,39.53
2019-05-22T22:40:40.718Z,38.13
2019-05-22T22:43:20.605Z,42.93
2019-05-22T22:46:02.111Z,38.67
2019-05-22T22:48:33.591Z,42.27
2019-05-22T22:51:07.156Z,42.33
2019-05-22T22:53:37.783Z,38.93
2019-05-22T22:56:09.197Z,43.17
2019-05-22T22:58:41.106Z,41.10
2019-05-22T23:01:15.857Z,44.07
2019-05-22T23:03:48.993Z,55.93
2019-05-22T23:06:20.832Z,39.77
2019-05-22T23:08:50.541Z,36.17
2019-05-22T23:11:21.340Z,38.27
2019-05-22T23:13:52.774Z,39.70
2019-05-22T23:16:23.593Z,38.37
2019-05-22T23:19:32.073Z,38.53
2019-05-22T23:22:01.353Z,40.30
2019-05-22T23:24:32.952Z,44.00
2019-05-22T23:27:02.692Z,41.17
2019-05-22T23:29:33.441Z,40.47
2019-05-22T23:32:04.002Z,38.97
2019-05-22T23:34:35.626Z,37.63
2019-05-22T23:37:07.074Z,41.50
2019-05-22T23:39:39.351Z,35.50
2019-05-22T23:42:14.445Z,36.63
2019-05-22T23:44:44.877Z,32.53
2019-05-22T23:47:14.667Z,34.20
2019-05-22T23:49:45.022Z,33.50
2019-05-22T23:52:18.579Z,33.93
2019-05-22T23:54:51.334Z,34.03
2019-05-22T23:57:22.579Z,29.73
